createdAt,value
2022-12-26T00:02:04.401Z,10.50
2022-12-26T00:04:55.033Z,8.70
2022-12-26T00:07:45.881Z,9.30
2022-12-26T00:10:36.303Z,7.90
2022-12-26T00:13:38.798Z,10.40
2022-12-26T00:16:31.821Z,9.20
2022-12-26T00:19:23.443Z,8.90
2022-12-26T00:22:15.921Z,8.40
2022-12-26T00:25:07.927Z,8.90
2022-12-26T00:27:58.216Z,9.00
2022-12-26T00:30:48.404Z,7.40
2022-12-26T00:33:39.307Z,8.60
2022-12-26T00:36:31.163Z,11.70
2022-12-26T00:39:21.122Z,19.40
2022-12-26T00:42:11.844Z,10.40
2022-12-26T00:45:02.389Z,7.90
2022-12-26T00:47:52.694Z,8.00
2022-12-26T00:50:42.605Z,8.20
2022-12-26T00:53:32.688Z,8.50
2022-12-26T00:56:23.395Z,8.60
2022-12-26T00:59:14.090Z,9.00
2022-12-26T01:02:25.300Z,7.50
2022-12-26T01:05:15.171Z,8.50
2022-12-26T01:08:21.254Z,8.40
2022-12-26T01:11:16.264Z,9.10
2022-12-26T01:14:06.613Z,8.60
2022-12-26T01:16:56.785Z,7.50
2022-12-26T01:19:47.565Z,9.00
2022-12-26T01:22:38.101Z,7.90
2022-12-26T01:25:28.088Z,8.20
2022-12-26T01:28:18.569Z,7.60
2022-12-26T01:31:09.463Z,8.20
2022-12-26T01:33:59.468Z,8.80
2022-12-26T01:36:50.600Z,8.60
2022-12-26T01:39:41.382Z,8.60
2022-12-26T01:42:40.293Z,7.50
2022-12-26T01:45:33.183Z,8.30
2022-12-26T01:48:33.666Z,8.50
2022-12-26T01:51:28.237Z,8.50
2022-12-26T01:54:39.168Z,9.60
2022-12-26T01:57:35.091Z,7.90
2022-12-26T02:00:26.211Z,7.90
2022-12-26T02:03:35.916Z,8.50
2022-12-26T02:06:27.194Z,8.80
2022-12-26T02:09:18.241Z,7.90
2022-12-26T02:12:33.731Z,7.60
2022-12-26T02:15:27.537Z,9.10
2022-12-26T02:18:17.987Z,8.40
2022-12-26T02:21:20.263Z,8.70
2022-12-26T02:24:40.344Z,7.40
2022-12-26T02:27:55.661Z,8.50
2022-12-26T02:30:51.297Z,7.10
2022-12-26T02:33:54.044Z,8.70
2022-12-26T02:37:13.540Z,8.20
2022-12-26T02:40:34.729Z,7.10
2022-12-26T02:43:34.249Z,6.70
2022-12-26T02:46:47.258Z,8.70
2022-12-26T02:50:10.856Z,7.60
2022-12-26T02:53:30.320Z,7.60
2022-12-26T02:56:43.382Z,7.00
2022-12-26T03:00:07.611Z,7.50
2022-12-26T03:03:20.260Z,7.20
2022-12-26T03:06:32.546Z,7.10
2022-12-26T03:09:44.444Z,9.20
2022-12-26T03:12:58.980Z,7.90
2022-12-26T03:16:12.310Z,7.80
2022-12-26T03:19:07.508Z,8.80
2022-12-26T03:22:00.311Z,7.60
2022-12-26T03:25:05.235Z,6.50
2022-12-26T03:27:56.048Z,10.90
2022-12-26T03:30:52.580Z,7.80
2022-12-26T03:34:02.804Z,7.50
2022-12-26T03:37:03.883Z,7.70
2022-12-26T03:40:23.356Z,8.50
2022-12-26T03:43:42.214Z,7.80
2022-12-26T03:47:01.548Z,8.40
2022-12-26T03:50:15.540Z,7.50
2022-12-26T03:53:29.397Z,8.00
2022-12-26T03:56:43.939Z,10.10
2022-12-26T03:59:57.567Z,10.30
2022-12-26T04:03:07.120Z,8.80
2022-12-26T04:06:18.120Z,9.30
2022-12-26T04:09:31.331Z,8.00
2022-12-26T04:12:42.763Z,9.90
2022-12-26T04:15:58.672Z,10.10
2022-12-26T04:19:12.729Z,9.90
2022-12-26T04:22:27.524Z,10.00
2022-12-26T04:25:48.563Z,8.60
2022-12-26T04:28:58.686Z,8.90
2022-12-26T04:32:09.895Z,9.80
2022-12-26T04:35:24.873Z,7.50
2022-12-26T04:38:37.256Z,7.60
2022-12-26T04:41:47.136Z,8.80
2022-12-26T04:44:38.669Z,8.20
2022-12-26T04:47:31.370Z,7.90
2022-12-26T04:50:21.286Z,8.00
2022-12-26T04:53:12.548Z,8.70
2022-12-26T04:56:02.710Z,8.80
2022-12-26T04:58:52.947Z,8.10
2022-12-26T05:02:01.061Z,7.30
2022-12-26T05:05:09.181Z,7.90
2022-12-26T05:08:18.297Z,9.50
2022-12-26T05:11:09.537Z,8.80
2022-12-26T05:14:00.789Z,9.30
2022-12-26T05:17:08.728Z,8.60
2022-12-26T05:20:16.574Z,8.10
2022-12-26T05:23:30.074Z,8.90
2022-12-26T05:26:40.955Z,9.70
2022-12-26T05:29:31.396Z,9.00
2022-12-26T05:32:39.105Z,8.20
2022-12-26T05:35:30.240Z,9.50
2022-12-26T05:38:20.967Z,8.20
2022-12-26T05:41:11.878Z,8.60
2022-12-26T05:44:02.045Z,8.70
2022-12-26T05:46:51.754Z,7.50
2022-12-26T05:49:42.609Z,7.90
2022-12-26T05:52:33.487Z,8.50
2022-12-26T05:55:24.675Z,8.10
2022-12-26T05:58:14.344Z,10.00
2022-12-26T06:01:14.047Z,8.40
2022-12-26T06:04:04.924Z,8.50
2022-12-26T06:06:56.453Z,9.30
2022-12-26T06:09:46.174Z,8.70
2022-12-26T06:12:36.511Z,8.20
2022-12-26T06:15:26.901Z,10.20
2022-12-26T06:18:17.791Z,8.60
2022-12-26T06:21:10.317Z,7.50
2022-12-26T06:24:00.789Z,7.80
2022-12-26T06:26:50.970Z,8.40
2022-12-26T06:29:41.249Z,8.90
2022-12-26T06:32:31.350Z,7.70
2022-12-26T06:35:22.692Z,9.60
2022-12-26T06:38:13.065Z,8.40
2022-12-26T06:41:05.723Z,8.50
2022-12-26T06:43:57.269Z,7.40
2022-12-26T06:46:47.773Z,7.80
2022-12-26T06:49:38.120Z,9.20
2022-12-26T06:52:30.159Z,8.50
2022-12-26T06:55:21.204Z,11.40
2022-12-26T06:58:11.974Z,10.00
2022-12-26T07:01:09.357Z,8.00
2022-12-26T07:04:00.250Z,11.70
2022-12-26T07:06:50.768Z,11.50
2022-12-26T07:09:41.018Z,9.60
2022-12-26T07:12:31.045Z,9.90
2022-12-26T07:15:21.395Z,8.80
2022-12-26T07:18:11.530Z,8.60
2022-12-26T07:21:01.416Z,8.10
2022-12-26T07:23:52.421Z,9.50
2022-12-26T07:26:42.700Z,9.60
2022-12-26T07:29:33.000Z,8.80
2022-12-26T07:32:23.293Z,8.10
2022-12-26T07:35:14.413Z,8.90
2022-12-26T07:38:05.486Z,8.00
2022-12-26T07:40:58.524Z,8.70
2022-12-26T07:43:48.926Z,8.60
2022-12-26T07:46:40.046Z,9.60
2022-12-26T07:49:30.758Z,9.20
2022-12-26T07:52:21.587Z,10.20
2022-12-26T07:55:13.109Z,9.60
2022-12-26T07:58:03.978Z,11.50
2022-12-26T08:00:54.992Z,10.90
2022-12-26T08:03:45.665Z,9.90
2022-12-26T08:06:35.998Z,10.90
2022-12-26T08:09:26.999Z,12.30
2022-12-26T08:12:21.432Z,11.50
2022-12-26T08:15:14.983Z,12.10
2022-12-26T08:18:04.985Z,11.50
2022-12-26T08:20:56.030Z,11.20
2022-12-26T08:23:48.546Z,12.00
2022-12-26T08:26:38.504Z,11.10
2022-12-26T08:29:28.761Z,11.90
2022-12-26T08:32:18.954Z,11.60
2022-12-26T08:35:10.737Z,10.70
2022-12-26T08:38:01.283Z,9.80
2022-12-26T08:40:57.674Z,12.50
2022-12-26T08:47:01.337Z,11.90
2022-12-26T08:49:51.376Z,10.30
2022-12-26T08:52:41.494Z,11.00
2022-12-26T08:55:31.941Z,20.90
2022-12-26T08:58:22.828Z,12.90
2022-12-26T09:01:15.009Z,16.20
2022-12-26T09:04:07.439Z,27.30
2022-12-26T09:06:57.666Z,14.30
2022-12-26T09:09:47.550Z,14.20
2022-12-26T09:12:37.649Z,12.80
2022-12-26T09:15:28.302Z,15.20
2022-12-26T09:18:21.677Z,12.10
2022-12-26T09:21:13.844Z,15.60
2022-12-26T09:24:06.097Z,12.30
2022-12-26T09:26:55.749Z,15.00
2022-12-26T09:29:46.014Z,14.10
2022-12-26T09:32:37.027Z,12.40
2022-12-26T09:35:28.367Z,13.40
2022-12-26T09:38:18.884Z,11.90
2022-12-26T09:41:30.017Z,14.40
2022-12-26T09:44:27.116Z,13.60
2022-12-26T09:47:31.831Z,14.30
2022-12-26T09:50:29.451Z,12.80
2022-12-26T09:53:33.268Z,13.70
2022-12-26T09:59:46.579Z,13.20
2022-12-26T10:02:36.877Z,14.90
2022-12-26T10:05:32.977Z,14.00
2022-12-26T10:08:29.943Z,21.00
2022-12-26T10:11:32.892Z,18.50
2022-12-26T10:14:27.925Z,14.50
2022-12-26T10:17:26.291Z,13.60
2022-12-26T10:20:24.470Z,12.70
2022-12-26T10:23:32.078Z,12.50
2022-12-26T10:26:25.092Z,10.60
2022-12-26T10:29:23.472Z,9.80
2022-12-26T10:32:25.974Z,10.40
2022-12-26T10:35:25.306Z,13.80
2022-12-26T10:38:27.701Z,9.20
2022-12-26T10:41:25.765Z,9.20
2022-12-26T10:44:18.058Z,10.60
2022-12-26T10:47:27.595Z,9.70
2022-12-26T10:50:26.960Z,8.50
2022-12-26T10:53:18.558Z,9.40
2022-12-26T10:56:14.795Z,11.00
2022-12-26T10:59:12.793Z,9.90
2022-12-26T11:02:16.221Z,8.80
2022-12-26T11:05:27.029Z,10.10
2022-12-26T11:08:27.108Z,11.80
2022-12-26T11:11:26.915Z,10.80
2022-12-26T11:14:35.606Z,13.20
2022-12-26T11:17:32.625Z,12.80
2022-12-26T11:20:32.530Z,9.90
2022-12-26T11:23:32.970Z,9.30
2022-12-26T11:26:26.177Z,10.20
2022-12-26T11:29:18.411Z,9.60
2022-12-26T11:32:20.101Z,8.50
2022-12-26T11:35:21.545Z,8.60
2022-12-26T11:38:37.551Z,9.80
2022-12-26T11:41:44.215Z,10.10
2022-12-26T11:44:41.041Z,9.50
2022-12-26T11:47:32.125Z,9.70
2022-12-26T11:50:26.596Z,8.40
2022-12-26T11:53:20.819Z,8.70
2022-12-26T11:56:11.565Z,8.50
2022-12-26T11:59:17.677Z,7.40
2022-12-26T12:02:23.896Z,10.00
2022-12-26T12:05:29.273Z,10.70
2022-12-26T12:08:39.585Z,9.20
2022-12-26T12:11:39.594Z,10.40
2022-12-26T12:14:41.233Z,10.70
2022-12-26T12:17:37.725Z,14.10
2022-12-26T12:23:56.816Z,8.80
2022-12-26T12:27:03.205Z,11.00
2022-12-26T12:30:16.155Z,12.30
2022-12-26T12:33:30.217Z,10.00
2022-12-26T12:36:25.269Z,10.90
2022-12-26T12:39:22.113Z,9.70
2022-12-26T12:42:27.563Z,7.90
2022-12-26T12:45:27.897Z,11.80
2022-12-26T12:48:36.695Z,8.00
2022-12-26T12:51:34.451Z,11.10
2022-12-26T12:55:00.889Z,9.50
2022-12-26T12:57:54.950Z,10.60
2022-12-26T13:00:49.451Z,13.10
2022-12-26T13:03:46.347Z,10.50
2022-12-26T13:06:42.851Z,12.50
2022-12-26T13:09:38.590Z,10.50
2022-12-26T13:12:35.007Z,8.70
2022-12-26T13:15:33.698Z,9.40
2022-12-26T13:18:28.804Z,10.70
2022-12-26T13:21:19.991Z,8.70
2022-12-26T13:24:27.433Z,11.30
2022-12-26T13:27:23.137Z,10.90
2022-12-26T13:30:17.347Z,9.40
2022-12-26T13:33:07.806Z,11.20
2022-12-26T13:36:01.091Z,12.40
2022-12-26T13:39:35.099Z,10.40
2022-12-26T13:42:57.193Z,13.30
2022-12-26T13:45:57.790Z,10.30
2022-12-26T13:49:01.085Z,10.50
2022-12-26T13:52:08.992Z,10.40
2022-12-26T13:55:44.312Z,11.50
2022-12-26T13:58:49.564Z,11.10
2022-12-26T14:01:53.687Z,13.50
2022-12-26T14:04:58.242Z,13.60
2022-12-26T14:07:57.664Z,11.20
2022-12-26T14:10:58.549Z,15.20
2022-12-26T14:14:06.295Z,12.30
2022-12-26T14:17:06.564Z,11.50
2022-12-26T14:20:12.463Z,11.30
2022-12-26T14:23:18.327Z,9.30
2022-12-26T14:26:22.617Z,11.00
2022-12-26T14:29:22.929Z,19.20
2022-12-26T14:32:24.236Z,23.80
2022-12-26T14:35:24.800Z,13.00
2022-12-26T14:38:26.027Z,14.40
2022-12-26T14:41:32.291Z,11.20
2022-12-26T14:44:45.449Z,13.40
2022-12-26T14:47:45.138Z,10.90
2022-12-26T14:50:46.145Z,9.80
2022-12-26T14:53:37.013Z,13.30
2022-12-26T14:56:38.223Z,12.40
2022-12-26T14:59:33.797Z,12.10
2022-12-26T15:02:35.064Z,11.50
2022-12-26T15:05:29.567Z,11.00
2022-12-26T15:08:36.298Z,11.70
2022-12-26T15:11:59.769Z,10.10
2022-12-26T15:15:19.453Z,12.60
2022-12-26T15:18:43.105Z,12.50
2022-12-26T15:22:01.438Z,11.50
2022-12-26T15:25:42.659Z,12.70
2022-12-26T15:29:11.456Z,17.60
2022-12-26T15:32:09.184Z,13.50
2022-12-26T15:35:13.938Z,12.80
2022-12-26T15:38:18.784Z,14.30
2022-12-26T15:41:16.362Z,13.20
2022-12-26T15:44:22.262Z,12.40
2022-12-26T15:47:24.460Z,13.60
2022-12-26T15:50:28.416Z,11.70
2022-12-26T15:53:30.659Z,14.60
2022-12-26T15:56:43.151Z,12.30
2022-12-26T15:59:52.195Z,11.00
2022-12-26T16:02:48.237Z,17.40
2022-12-26T16:05:59.606Z,14.10
2022-12-26T16:09:06.253Z,12.70
2022-12-26T16:12:00.539Z,13.70
2022-12-26T16:15:00.972Z,13.90
2022-12-26T16:17:51.257Z,14.30
2022-12-26T16:20:58.721Z,13.10
2022-12-26T16:23:50.501Z,14.40
2022-12-26T16:26:44.500Z,16.10
2022-12-26T16:29:38.039Z,15.80
2022-12-26T16:32:35.594Z,12.50
2022-12-26T16:35:29.490Z,12.30
2022-12-26T16:38:25.483Z,11.40
2022-12-26T16:41:23.652Z,13.50
2022-12-26T16:44:35.874Z,14.00
2022-12-26T16:47:26.051Z,15.00
2022-12-26T16:50:20.478Z,14.10
2022-12-26T16:53:18.603Z,16.20
2022-12-26T16:56:26.567Z,13.40
2022-12-26T16:59:19.160Z,13.60
2022-12-26T17:02:20.502Z,12.90
2022-12-26T17:05:26.056Z,12.60
2022-12-26T17:08:17.061Z,14.40
2022-12-26T17:11:07.455Z,11.20
2022-12-26T17:13:59.508Z,15.00
2022-12-26T17:16:57.237Z,16.80
2022-12-26T17:19:53.766Z,10.90
2022-12-26T17:22:44.560Z,12.50
2022-12-26T17:25:35.494Z,12.50
2022-12-26T17:28:29.657Z,12.00
2022-12-26T17:31:25.324Z,13.00
2022-12-26T17:34:21.405Z,12.50
2022-12-26T17:37:22.545Z,10.90
2022-12-26T17:40:28.168Z,12.50
2022-12-26T17:43:26.332Z,15.00
2022-12-26T17:46:18.829Z,12.30
2022-12-26T17:49:09.419Z,15.10
2022-12-26T17:52:01.889Z,13.10
2022-12-26T17:54:53.792Z,12.80
2022-12-26T17:57:44.141Z,16.90
2022-12-26T18:00:34.210Z,15.20
2022-12-26T18:03:24.874Z,15.80
2022-12-26T18:06:19.573Z,14.50
2022-12-26T18:09:20.975Z,12.50
2022-12-26T18:12:14.322Z,13.10
2022-12-26T18:15:04.930Z,14.40
2022-12-26T18:17:55.965Z,15.10
2022-12-26T18:20:46.203Z,11.60
2022-12-26T18:23:37.605Z,11.60
2022-12-26T18:26:31.410Z,9.80
2022-12-26T18:29:23.238Z,13.70
2022-12-26T18:32:20.291Z,15.10
2022-12-26T18:35:14.438Z,15.20
2022-12-26T18:38:04.716Z,12.90
2022-12-26T18:40:58.089Z,13.20
2022-12-26T18:43:48.165Z,13.40
2022-12-26T18:46:38.566Z,13.80
2022-12-26T18:49:28.550Z,11.00
2022-12-26T18:52:19.211Z,12.60
2022-12-26T18:55:10.028Z,15.30
2022-12-26T18:58:00.428Z,15.60
2022-12-26T19:00:50.565Z,14.40
2022-12-26T19:03:41.259Z,17.00
2022-12-26T19:06:35.376Z,13.40
2022-12-26T19:09:25.848Z,15.10
2022-12-26T19:12:16.921Z,12.00
2022-12-26T19:15:08.946Z,23.20
2022-12-26T19:17:59.252Z,15.60
2022-12-26T19:20:49.845Z,14.60
2022-12-26T19:23:39.932Z,14.10
2022-12-26T19:26:29.644Z,15.00
2022-12-26T19:29:19.805Z,12.10
2022-12-26T19:32:10.266Z,14.20
2022-12-26T19:35:00.384Z,14.00
2022-12-26T19:37:51.261Z,12.00
2022-12-26T19:40:41.355Z,13.40
2022-12-26T19:43:31.735Z,14.40
2022-12-26T19:46:22.270Z,13.30
2022-12-26T19:49:12.814Z,13.80
2022-12-26T19:52:03.605Z,15.30
2022-12-26T19:54:53.935Z,14.20
2022-12-26T19:57:44.499Z,14.90
2022-12-26T20:00:34.551Z,15.40
2022-12-26T20:03:25.579Z,13.60
2022-12-26T20:06:17.919Z,15.00
2022-12-26T20:09:12.816Z,12.70
2022-12-26T20:12:03.430Z,14.00
2022-12-26T20:14:56.130Z,13.00
2022-12-26T20:17:46.827Z,14.10
2022-12-26T20:20:37.359Z,14.70
2022-12-26T20:23:27.574Z,15.50
2022-12-26T20:26:23.121Z,15.30
2022-12-26T20:29:13.495Z,14.00
2022-12-26T20:32:03.847Z,13.40
2022-12-26T20:34:53.873Z,13.20
2022-12-26T20:37:43.781Z,13.30
2022-12-26T20:40:33.748Z,13.80
2022-12-26T20:43:24.571Z,13.60
2022-12-26T20:46:17.937Z,13.80
2022-12-26T20:49:07.868Z,15.40
2022-12-26T20:51:57.934Z,14.60
2022-12-26T20:54:47.561Z,13.20
2022-12-26T20:57:37.717Z,15.20
2022-12-26T21:00:27.695Z,16.10
2022-12-26T21:03:18.595Z,16.00
2022-12-26T21:06:15.084Z,14.70
2022-12-26T21:09:05.543Z,14.00
2022-12-26T21:11:55.744Z,15.40
2022-12-26T21:14:45.281Z,18.20
2022-12-26T21:17:34.778Z,19.40
2022-12-26T21:20:25.878Z,23.50
2022-12-26T21:23:16.004Z,19.90
2022-12-26T21:26:07.271Z,17.50
2022-12-26T21:29:04.080Z,22.40
2022-12-26T21:31:54.764Z,14.70
2022-12-26T21:34:45.306Z,14.40
2022-12-26T21:37:51.761Z,12.70
2022-12-26T21:40:45.659Z,12.00
2022-12-26T21:43:36.433Z,14.00
2022-12-26T21:46:27.236Z,12.10
2022-12-26T21:49:18.446Z,13.30
2022-12-26T21:52:09.133Z,12.30
2022-12-26T21:55:16.898Z,14.00
2022-12-26T21:58:07.789Z,12.80
2022-12-26T22:00:58.796Z,14.60
2022-12-26T22:04:07.935Z,12.50
2022-12-26T22:06:58.997Z,12.00
2022-12-26T22:09:49.033Z,14.70
2022-12-26T22:12:57.191Z,12.10
2022-12-26T22:16:07.831Z,13.60
2022-12-26T22:18:58.420Z,12.40
2022-12-26T22:21:49.089Z,10.90
2022-12-26T22:24:39.611Z,12.70
2022-12-26T22:27:29.946Z,12.20
2022-12-26T22:30:21.216Z,11.10
2022-12-26T22:33:11.578Z,12.10
2022-12-26T22:36:09.161Z,11.90
2022-12-26T22:39:00.542Z,14.60
2022-12-26T22:41:51.055Z,15.30
2022-12-26T22:44:41.732Z,13.60
2022-12-26T22:47:31.985Z,14.50
2022-12-26T22:50:22.643Z,14.10
2022-12-26T22:53:13.835Z,13.30
2022-12-26T22:56:06.427Z,14.20
2022-12-26T22:59:00.580Z,13.40
2022-12-26T23:01:50.855Z,15.00
2022-12-26T23:04:42.181Z,14.30
2022-12-26T23:07:32.902Z,14.50
2022-12-26T23:10:26.361Z,15.40
2022-12-26T23:13:18.170Z,14.50
2022-12-26T23:16:15.473Z,12.50
2022-12-26T23:19:31.529Z,14.50
2022-12-26T23:22:24.337Z,12.90
2022-12-26T23:25:15.786Z,11.50
2022-12-26T23:28:23.144Z,12.10
2022-12-26T23:31:13.268Z,13.20
2022-12-26T23:34:03.551Z,15.50
2022-12-26T23:36:54.659Z,14.80
2022-12-26T23:39:45.557Z,11.80
2022-12-26T23:42:35.678Z,13.50
2022-12-26T23:45:26.319Z,16.00
2022-12-26T23:48:17.687Z,15.00
2022-12-26T23:51:09.768Z,13.50
2022-12-26T23:54:00.235Z,15.20
2022-12-26T23:56:50.348Z,15.60
2022-12-26T23:59:40.898Z,14.90
